createdAt,value
2018-05-13T00:00:46.822Z,14.20
2018-05-13T00:01:46.735Z,13.90
2018-05-13T00:02:46.650Z,13.70
2018-05-13T00:03:46.588Z,14.40
2018-05-13T00:04:46.465Z,13.10
2018-05-13T00:05:46.469Z,13.80
2018-05-13T00:06:46.293Z,13.70
2018-05-13T00:07:46.198Z,13.90
2018-05-13T00:08:46.137Z,13.60
2018-05-13T00:09:46.017Z,13.90
2018-05-13T00:10:45.925Z,14.50
2018-05-13T00:11:45.840Z,14.70
2018-05-13T00:12:45.845Z,13.50
2018-05-13T00:13:45.686Z,14.20
2018-05-13T00:14:45.571Z,13.50
2018-05-13T00:15:45.482Z,13.80
2018-05-13T00:16:45.390Z,14.10
2018-05-13T00:17:45.300Z,13.60
2018-05-13T00:18:45.240Z,14.20
2018-05-13T00:19:45.214Z,14.40
2018-05-13T00:20:45.031Z,14.10
2018-05-13T00:21:44.945Z,13.60
2018-05-13T00:22:44.852Z,14.40
2018-05-13T00:23:44.791Z,14.60
2018-05-13T00:24:44.675Z,14.70
2018-05-13T00:25:44.583Z,14.00
2018-05-13T00:26:44.593Z,13.90
2018-05-13T00:27:44.404Z,14.00
2018-05-13T00:28:44.346Z,13.90
2018-05-13T00:29:44.224Z,13.90
2018-05-13T00:30:44.140Z,15.20
2018-05-13T00:31:44.047Z,14.70
2018-05-13T00:32:43.955Z,13.60
2018-05-13T00:33:43.989Z,13.80
2018-05-13T00:34:43.781Z,14.70
2018-05-13T00:35:43.687Z,14.50
2018-05-13T00:36:43.600Z,14.30
2018-05-13T00:37:43.508Z,14.30
2018-05-13T00:38:43.449Z,14.90
2018-05-13T00:39:43.338Z,14.50
2018-05-13T00:40:43.327Z,15.10
2018-05-13T00:41:43.151Z,14.10
2018-05-13T00:42:43.071Z,15.00
2018-05-13T00:43:43.002Z,14.80
2018-05-13T00:44:42.882Z,16.30
2018-05-13T00:45:42.786Z,15.80
2018-05-13T00:46:42.699Z,15.50
2018-05-13T00:47:42.703Z,16.20
2018-05-13T00:48:42.549Z,16.40
2018-05-13T00:49:42.428Z,16.40
2018-05-13T00:50:42.365Z,16.70
2018-05-13T00:51:42.253Z,18.70
2018-05-13T00:52:42.162Z,17.10
2018-05-13T00:53:42.072Z,17.50
2018-05-13T00:54:42.107Z,18.40
2018-05-13T00:55:41.891Z,18.20
2018-05-13T00:56:41.801Z,18.30
2018-05-13T00:57:41.711Z,18.40
2018-05-13T00:58:41.624Z,18.90
2018-05-13T00:59:41.564Z,19.10
2018-05-13T01:00:41.540Z,19.50
2018-05-13T01:01:41.353Z,19.50
2018-05-13T01:02:41.350Z,19.40
2018-05-13T01:03:41.174Z,19.50
2018-05-13T01:04:41.112Z,19.60
2018-05-13T01:05:40.995Z,18.90
2018-05-13T01:06:40.905Z,18.00
2018-05-13T01:07:40.821Z,20.10
2018-05-13T01:08:40.727Z,19.10
2018-05-13T01:09:40.668Z,20.70
2018-05-13T01:10:40.544Z,20.70
2018-05-13T01:11:40.455Z,20.40
2018-05-13T01:12:40.360Z,20.50
2018-05-13T01:13:40.275Z,21.40
2018-05-13T01:14:40.217Z,20.60
2018-05-13T01:15:40.097Z,22.00
2018-05-13T01:16:40.005Z,21.00
2018-05-13T01:17:39.915Z,21.00
2018-05-13T01:18:39.824Z,21.80
2018-05-13T01:19:39.767Z,20.70
2018-05-13T01:20:39.643Z,22.70
2018-05-13T01:21:39.558Z,23.30
2018-05-13T01:22:39.467Z,22.80
2018-05-13T01:23:39.377Z,21.80
2018-05-13T01:24:39.322Z,23.50
2018-05-13T01:25:39.197Z,24.60
2018-05-13T01:26:39.107Z,24.10
2018-05-13T01:27:39.022Z,22.70
2018-05-13T01:28:38.927Z,24.60
2018-05-13T01:29:38.867Z,24.90
2018-05-13T01:30:38.746Z,25.20
2018-05-13T01:31:38.659Z,26.20
2018-05-13T01:32:38.568Z,24.90
2018-05-13T01:33:38.480Z,26.20
2018-05-13T01:34:38.418Z,25.10
2018-05-13T01:35:38.296Z,25.80
2018-05-13T01:36:38.207Z,25.50
2018-05-13T01:37:38.119Z,27.20
2018-05-13T01:38:38.029Z,27.30
2018-05-13T01:39:37.968Z,27.90
2018-05-13T01:40:37.847Z,27.20
2018-05-13T01:41:37.756Z,27.50
2018-05-13T01:42:37.676Z,29.10
2018-05-13T01:43:37.581Z,28.50
2018-05-13T01:44:37.517Z,28.80
2018-05-13T01:45:37.396Z,30.40
2018-05-13T01:46:37.306Z,30.40
2018-05-13T01:47:37.217Z,29.80
2018-05-13T01:48:37.129Z,29.90
2018-05-13T01:49:37.069Z,30.70
2018-05-13T01:50:36.946Z,30.90
2018-05-13T01:51:36.857Z,31.30
2018-05-13T01:52:36.763Z,32.70
2018-05-13T01:53:36.677Z,32.10
2018-05-13T01:54:36.621Z,31.30
2018-05-13T01:55:36.504Z,31.60
2018-05-13T01:56:36.431Z,32.90
2018-05-13T01:57:36.317Z,33.10
2018-05-13T01:58:36.230Z,31.90
2018-05-13T01:59:36.169Z,32.40
2018-05-13T02:00:36.050Z,32.80
2018-05-13T02:01:35.958Z,31.50
2018-05-13T02:02:35.868Z,33.50
2018-05-13T02:03:35.778Z,34.00
2018-05-13T02:04:35.689Z,33.90
2018-05-13T02:05:35.625Z,32.40
2018-05-13T02:06:35.525Z,31.70
2018-05-13T02:07:35.417Z,33.10
2018-05-13T02:08:35.328Z,34.90
2018-05-13T02:09:35.238Z,34.80
2018-05-13T02:10:35.177Z,33.70
2018-05-13T02:11:35.057Z,34.50
2018-05-13T02:12:34.968Z,32.80
2018-05-13T02:13:34.875Z,33.90
2018-05-13T02:14:34.790Z,33.30
2018-05-13T02:15:34.726Z,33.70
2018-05-13T02:16:34.605Z,33.50
2018-05-13T02:17:34.515Z,34.70
2018-05-13T02:18:34.426Z,32.50
2018-05-13T02:19:34.334Z,33.50
2018-05-13T02:20:35.644Z,33.60
2018-05-13T02:21:34.156Z,32.00
2018-05-13T02:22:34.066Z,33.90
2018-05-13T02:23:33.979Z,33.00
2018-05-13T02:24:33.886Z,32.30
2018-05-13T02:25:34.020Z,31.60
2018-05-13T02:26:33.708Z,32.10
2018-05-13T02:27:33.617Z,33.20
2018-05-13T02:28:33.524Z,30.90
2018-05-13T02:29:33.436Z,32.60
2018-05-13T02:30:33.376Z,32.60
2018-05-13T02:31:33.258Z,32.10
2018-05-13T02:32:33.259Z,32.00
2018-05-13T02:33:33.074Z,31.80
2018-05-13T02:34:32.987Z,32.20
2018-05-13T02:35:32.927Z,33.20
2018-05-13T02:36:32.808Z,31.50
2018-05-13T02:37:32.716Z,32.10
2018-05-13T02:38:32.626Z,32.60
2018-05-13T02:39:32.641Z,30.60
2018-05-13T02:40:32.475Z,31.50
2018-05-13T02:41:32.352Z,32.10
2018-05-13T02:42:32.266Z,30.50
2018-05-13T02:43:32.176Z,32.00
2018-05-13T02:44:32.088Z,33.20
2018-05-13T02:45:32.027Z,32.90
2018-05-13T02:46:31.999Z,32.70
2018-05-13T02:47:31.815Z,29.40
2018-05-13T02:48:31.723Z,33.40
2018-05-13T02:49:31.637Z,33.00
2018-05-13T02:50:31.574Z,32.90
2018-05-13T02:51:31.457Z,30.80
2018-05-13T02:52:31.364Z,32.90
2018-05-13T02:53:31.367Z,32.70
2018-05-13T02:54:31.187Z,30.40
2018-05-13T02:55:31.126Z,32.80
2018-05-13T02:56:31.003Z,34.50
2018-05-13T02:57:30.914Z,32.80
2018-05-13T02:58:30.824Z,30.80
2018-05-13T02:59:30.738Z,33.40
2018-05-13T03:00:30.784Z,33.50
2018-05-13T03:01:30.555Z,31.20
2018-05-13T03:02:30.462Z,32.50
2018-05-13T03:03:30.381Z,33.00
2018-05-13T03:04:30.281Z,34.30
2018-05-13T03:05:30.195Z,33.10
2018-05-13T03:06:30.133Z,33.50
2018-05-13T03:07:30.110Z,35.00
2018-05-13T03:08:29.923Z,34.50
2018-05-13T03:09:29.838Z,33.60
2018-05-13T03:10:29.745Z,33.40
2018-05-13T03:11:29.682Z,34.50
2018-05-13T03:12:29.564Z,30.30
2018-05-13T03:13:29.476Z,34.20
2018-05-13T03:14:29.472Z,34.40
2018-05-13T03:15:29.305Z,32.70
2018-05-13T03:16:29.231Z,33.30
2018-05-13T03:17:29.114Z,34.20
2018-05-13T03:18:29.021Z,32.90
2018-05-13T03:19:28.931Z,33.60
2018-05-13T03:20:28.846Z,33.80
2018-05-13T03:21:28.881Z,34.20
2018-05-13T03:22:28.662Z,33.50
2018-05-13T03:23:28.573Z,33.70
2018-05-13T03:24:28.482Z,31.50
2018-05-13T03:25:28.392Z,34.00
2018-05-13T03:26:28.330Z,34.70
2018-05-13T03:27:28.211Z,33.70
2018-05-13T03:28:28.216Z,33.80
2018-05-13T03:29:28.029Z,34.00
2018-05-13T03:30:27.953Z,33.20
2018-05-13T03:31:27.885Z,33.20
2018-05-13T03:32:27.762Z,33.40
2018-05-13T03:33:27.672Z,33.20
2018-05-13T03:34:27.579Z,32.80
2018-05-13T03:35:27.583Z,32.00
2018-05-13T03:36:27.426Z,32.50
2018-05-13T03:37:27.309Z,32.80
2018-05-13T03:38:27.220Z,33.40
2018-05-13T03:39:27.134Z,32.90
2018-05-13T03:40:27.040Z,33.40
2018-05-13T03:41:26.978Z,33.00
2018-05-13T03:42:26.859Z,32.50
2018-05-13T03:43:26.768Z,33.50
2018-05-13T03:44:26.677Z,32.60
2018-05-13T03:45:26.588Z,30.90
2018-05-13T03:46:26.529Z,34.20
2018-05-13T03:47:26.407Z,31.70
2018-05-13T03:48:26.318Z,34.40
2018-05-13T03:49:26.365Z,30.80
2018-05-13T03:50:26.138Z,33.60
2018-05-13T03:51:26.091Z,31.90
2018-05-13T03:52:25.956Z,34.30
2018-05-13T03:53:25.865Z,33.90
2018-05-13T03:54:25.780Z,34.40
2018-05-13T03:55:25.687Z,35.00
2018-05-13T03:56:25.626Z,35.30
2018-05-13T03:57:25.508Z,32.40
2018-05-13T03:58:25.418Z,33.60
2018-05-13T03:59:25.327Z,33.70
2018-05-13T04:00:25.237Z,34.50
2018-05-13T04:01:25.176Z,32.10
2018-05-13T04:02:25.058Z,33.10
2018-05-13T04:03:24.964Z,34.20
2018-05-13T04:04:24.874Z,34.20
2018-05-13T04:05:24.786Z,34.20
2018-05-13T04:06:24.729Z,32.10
2018-05-13T04:07:24.689Z,34.80
2018-05-13T04:08:24.515Z,33.80
2018-05-13T04:09:24.422Z,34.20
2018-05-13T04:10:24.335Z,34.20
2018-05-13T04:11:24.248Z,33.40
2018-05-13T04:12:24.183Z,30.10
2018-05-13T04:13:24.063Z,31.50
2018-05-13T04:14:23.973Z,31.70
2018-05-13T04:15:23.885Z,33.20
2018-05-13T04:16:23.844Z,32.20
2018-05-13T04:17:23.710Z,32.30
2018-05-13T04:18:23.614Z,33.00
2018-05-13T04:19:23.528Z,33.50
2018-05-13T04:20:23.432Z,32.00
2018-05-13T04:21:23.343Z,32.30
2018-05-13T04:22:23.285Z,31.70
2018-05-13T04:23:23.164Z,31.50
2018-05-13T04:24:23.075Z,31.10
2018-05-13T04:25:22.985Z,30.80
2018-05-13T04:26:22.894Z,29.50
2018-05-13T04:27:22.832Z,29.90
2018-05-13T04:28:22.715Z,29.30
2018-05-13T04:29:22.624Z,29.60
2018-05-13T04:30:22.535Z,29.50
2018-05-13T04:31:22.443Z,29.00
2018-05-13T04:32:22.386Z,28.30
2018-05-13T04:33:22.277Z,27.70
2018-05-13T04:34:22.177Z,28.20
2018-05-13T04:35:22.087Z,27.20
2018-05-13T04:36:21.996Z,28.40
2018-05-13T04:37:21.937Z,28.80
2018-05-13T04:38:21.817Z,27.40
2018-05-13T04:39:21.731Z,26.90
2018-05-13T04:40:21.636Z,27.40
2018-05-13T04:41:21.550Z,27.40
2018-05-13T04:42:21.464Z,27.30
2018-05-13T04:43:21.400Z,26.00
2018-05-13T04:44:21.281Z,26.60
2018-05-13T04:45:21.194Z,26.40
2018-05-13T04:46:21.102Z,26.20
2018-05-13T04:47:21.015Z,24.90
2018-05-13T04:48:20.954Z,25.60
2018-05-13T04:49:20.836Z,26.10
2018-05-13T04:50:20.747Z,25.20
2018-05-13T04:51:20.659Z,24.90
2018-05-13T04:52:20.573Z,24.90
2018-05-13T04:53:20.512Z,24.70
2018-05-13T04:54:20.406Z,25.70
2018-05-13T04:55:20.304Z,25.40
2018-05-13T04:56:20.216Z,24.10
2018-05-13T04:57:20.128Z,25.80
2018-05-13T04:58:20.069Z,25.10
2018-05-13T04:59:19.950Z,25.20
2018-05-13T05:00:19.862Z,24.90
2018-05-13T05:01:19.771Z,25.30
2018-05-13T05:02:19.682Z,25.70
2018-05-13T05:03:19.622Z,25.70
2018-05-13T05:04:19.506Z,25.30
2018-05-13T05:05:19.419Z,24.40
2018-05-13T05:06:19.332Z,24.50
2018-05-13T05:07:19.244Z,24.80
2018-05-13T05:08:19.191Z,25.00
2018-05-13T05:09:19.070Z,25.30
2018-05-13T05:10:18.978Z,25.10
2018-05-13T05:11:18.891Z,24.40
2018-05-13T05:12:18.797Z,24.80
2018-05-13T05:13:18.740Z,24.00
2018-05-13T05:14:18.622Z,24.10
2018-05-13T05:15:18.537Z,23.40
2018-05-13T05:16:18.449Z,22.90
2018-05-13T05:17:18.361Z,24.10
2018-05-13T05:18:18.280Z,24.30
2018-05-13T05:19:18.305Z,24.30
2018-05-13T05:20:18.091Z,24.00
2018-05-13T05:21:18.002Z,23.70
2018-05-13T05:22:17.915Z,24.80
2018-05-13T05:23:17.827Z,23.80
2018-05-13T05:24:17.770Z,23.60
2018-05-13T05:25:17.650Z,23.60
2018-05-13T05:26:17.559Z,23.60
2018-05-13T05:27:17.475Z,23.50
2018-05-13T05:28:17.386Z,23.70
2018-05-13T05:29:17.323Z,22.60
2018-05-13T05:30:17.208Z,24.30
2018-05-13T05:31:17.124Z,23.20
2018-05-13T05:32:17.032Z,23.00
2018-05-13T05:33:17.040Z,23.40
2018-05-13T05:34:16.885Z,22.40
2018-05-13T05:35:16.766Z,22.20
2018-05-13T05:36:16.675Z,22.60
2018-05-13T05:37:16.603Z,22.40
2018-05-13T05:38:16.501Z,21.90
2018-05-13T05:39:16.443Z,21.50
2018-05-13T05:40:16.419Z,21.20
2018-05-13T05:41:16.235Z,20.70
2018-05-13T05:42:16.149Z,20.20
2018-05-13T05:43:16.060Z,20.50
2018-05-13T05:44:15.997Z,20.30
2018-05-13T05:45:15.920Z,20.50
2018-05-13T05:46:15.792Z,18.70
2018-05-13T05:47:15.799Z,18.70
2018-05-13T05:48:15.618Z,18.80
2018-05-13T05:49:15.560Z,18.60
2018-05-13T05:50:15.442Z,18.20
2018-05-13T05:51:15.354Z,18.10
2018-05-13T05:52:15.262Z,18.60
2018-05-13T05:53:15.175Z,18.00
2018-05-13T05:54:15.212Z,16.50
2018-05-13T05:55:14.999Z,18.10
2018-05-13T05:56:14.908Z,17.30
2018-05-13T05:57:14.822Z,17.60
2018-05-13T05:58:14.733Z,17.40
2018-05-13T05:59:14.678Z,17.80
2018-05-13T06:00:14.556Z,16.60
2018-05-13T06:01:14.558Z,16.10
2018-05-13T06:02:14.383Z,16.30
2018-05-13T06:03:14.317Z,16.50
2018-05-13T06:04:14.233Z,16.50
2018-05-13T06:05:14.124Z,15.60
2018-05-13T06:06:14.030Z,16.00
2018-05-13T06:07:14.065Z,15.40
2018-05-13T06:08:13.852Z,15.70
2018-05-13T06:09:13.798Z,15.90
2018-05-13T06:10:13.754Z,13.80
2018-05-13T06:11:13.591Z,15.30
2018-05-13T06:12:13.548Z,15.20
2018-05-13T06:13:13.416Z,15.10
2018-05-13T06:14:13.353Z,14.90
2018-05-13T06:15:13.239Z,15.40
2018-05-13T06:16:13.150Z,15.30
2018-05-13T06:17:13.062Z,14.70
2018-05-13T06:18:12.977Z,14.90
2018-05-13T06:19:12.925Z,14.40
2018-05-13T06:20:12.798Z,15.00
2018-05-13T06:21:12.713Z,14.90
2018-05-13T06:22:12.624Z,15.10
2018-05-13T06:23:12.542Z,14.90
2018-05-13T06:24:12.453Z,15.30
2018-05-13T06:25:12.478Z,14.20
2018-05-13T06:26:12.273Z,14.30
2018-05-13T06:27:12.187Z,13.70
2018-05-13T06:28:12.095Z,13.70
2018-05-13T06:29:12.014Z,13.70
2018-05-13T06:30:11.954Z,13.00
2018-05-13T06:31:11.835Z,13.50
2018-05-13T06:32:11.750Z,13.00
2018-05-13T06:33:11.665Z,13.40
2018-05-13T06:34:11.575Z,13.20
2018-05-13T06:35:11.523Z,13.60
2018-05-13T06:36:11.397Z,12.30
2018-05-13T06:37:11.311Z,12.60
2018-05-13T06:38:11.222Z,12.30
2018-05-13T06:39:11.141Z,12.90
2018-05-13T06:40:11.078Z,12.10
2018-05-13T06:41:10.960Z,13.00
2018-05-13T06:42:10.873Z,11.80
2018-05-13T06:43:10.860Z,11.70
2018-05-13T06:44:10.699Z,10.70
2018-05-13T06:45:10.729Z,10.90
2018-05-13T06:46:10.527Z,10.40
2018-05-13T06:47:10.439Z,10.80
2018-05-13T06:48:10.352Z,10.80
2018-05-13T06:49:10.362Z,10.50
2018-05-13T06:50:10.219Z,10.10
2018-05-13T06:51:10.125Z,10.90
2018-05-13T06:52:10.016Z,10.20
2018-05-13T06:53:09.923Z,10.70
2018-05-13T06:54:09.839Z,10.60
2018-05-13T06:55:09.792Z,11.30
2018-05-13T06:56:09.669Z,11.50
2018-05-13T06:57:09.581Z,10.30
2018-05-13T06:58:09.501Z,11.70
2018-05-13T06:59:09.412Z,10.30
2018-05-13T07:00:09.381Z,10.20
2018-05-13T07:01:09.242Z,9.50
2018-05-13T07:02:09.446Z,9.30
2018-05-13T07:03:09.074Z,12.50
2018-05-13T07:04:08.989Z,9.40
2018-05-13T07:05:08.935Z,10.10
2018-05-13T07:06:08.817Z,9.40
2018-05-13T07:07:08.734Z,9.80
2018-05-13T07:08:08.653Z,9.00
2018-05-13T07:09:08.664Z,9.40
2018-05-13T07:10:08.512Z,9.60
2018-05-13T07:11:08.398Z,9.30
2018-05-13T07:12:08.315Z,11.20
2018-05-13T07:13:08.235Z,8.80
2018-05-13T07:14:08.153Z,9.30
2018-05-13T07:15:08.096Z,8.60
2018-05-13T07:16:08.070Z,8.70
2018-05-13T07:17:07.897Z,10.60
2018-05-13T07:18:07.814Z,8.40
2018-05-13T07:19:07.730Z,8.50
2018-05-13T07:20:07.678Z,8.20
2018-05-13T07:21:07.561Z,10.10
2018-05-13T07:22:07.479Z,8.00
2018-05-13T07:23:07.487Z,8.20
2018-05-13T07:24:07.313Z,8.10
2018-05-13T07:25:07.261Z,9.70
2018-05-13T07:26:07.150Z,10.60
2018-05-13T07:27:07.064Z,8.50
2018-05-13T07:28:06.980Z,8.50
2018-05-13T07:29:06.900Z,8.10
2018-05-13T07:30:06.817Z,8.70
2018-05-13T07:32:38.188Z,8.00
2018-05-13T07:33:38.065Z,9.30
2018-05-13T07:34:37.985Z,7.80
2018-05-13T07:35:37.931Z,7.80
2018-05-13T07:36:37.819Z,8.50
2018-05-13T07:37:37.748Z,8.50
2018-05-13T07:38:37.652Z,8.10
2018-05-13T07:39:37.569Z,8.40
2018-05-13T07:40:37.517Z,9.70
2018-05-13T07:41:37.410Z,8.10
2018-05-13T07:42:37.323Z,8.90
2018-05-13T07:43:37.237Z,8.60
2018-05-13T07:44:37.156Z,8.70
2018-05-13T07:45:37.103Z,8.50
2018-05-13T07:46:36.988Z,7.40
2018-05-13T07:47:36.908Z,7.90
2018-05-13T07:48:36.823Z,7.70
2018-05-13T07:49:36.740Z,8.70
2018-05-13T07:50:36.688Z,8.80
2018-05-13T07:51:37.280Z,8.20
2018-05-13T07:52:36.491Z,8.10
2018-05-13T07:53:37.281Z,8.40
2018-05-13T07:54:36.325Z,8.60
2018-05-13T07:55:36.275Z,7.60
2018-05-13T07:56:36.161Z,8.30
2018-05-13T07:57:36.078Z,8.30
2018-05-13T07:58:35.995Z,10.30
2018-05-13T07:59:35.911Z,7.80
2018-05-13T08:00:35.861Z,8.50
2018-05-13T08:01:35.749Z,7.70
2018-05-13T08:02:35.664Z,7.50
2018-05-13T08:03:35.584Z,6.80
2018-05-13T08:04:35.502Z,7.80
2018-05-13T08:05:35.421Z,7.60
2018-05-13T08:06:35.367Z,7.40
2018-05-13T08:07:35.254Z,8.00
2018-05-13T08:08:35.171Z,7.70
2018-05-13T08:09:35.088Z,7.40
2018-05-13T08:10:35.007Z,8.10
2018-05-13T08:11:34.956Z,7.70
2018-05-13T08:12:34.842Z,7.30
2018-05-13T08:13:34.760Z,7.30
2018-05-13T08:14:34.676Z,7.30
2018-05-13T08:15:34.595Z,8.60
2018-05-13T08:16:34.545Z,8.10
2018-05-13T08:17:34.431Z,7.90
2018-05-13T08:18:35.295Z,7.50
2018-05-13T08:19:34.263Z,10.50
2018-05-13T08:20:34.839Z,8.00
2018-05-13T08:21:34.130Z,9.40
2018-05-13T08:22:34.017Z,7.40
2018-05-13T08:23:35.792Z,10.00
2018-05-13T08:24:33.849Z,8.50
2018-05-13T08:25:33.772Z,8.70
2018-05-13T08:26:33.716Z,8.60
2018-05-13T08:27:33.610Z,7.90
2018-05-13T08:28:33.520Z,9.10
2018-05-13T08:29:33.437Z,9.00
2018-05-13T08:30:33.455Z,8.30
2018-05-13T08:31:33.304Z,8.10
2018-05-13T08:32:33.204Z,8.20
2018-05-13T08:33:33.111Z,11.50
2018-05-13T08:34:33.029Z,8.80
2018-05-13T08:35:32.943Z,8.10
2018-05-13T08:36:32.893Z,7.30
2018-05-13T08:37:32.873Z,8.00
2018-05-13T08:38:32.699Z,8.20
2018-05-13T08:39:32.614Z,8.90
2018-05-13T08:40:32.533Z,8.30
2018-05-13T08:41:32.486Z,10.40
2018-05-13T08:42:32.369Z,13.40
2018-05-13T08:43:32.287Z,7.80
2018-05-13T08:44:32.305Z,8.10
2018-05-13T08:45:32.123Z,9.10
2018-05-13T08:46:32.072Z,8.50
2018-05-13T08:47:31.959Z,7.80
2018-05-13T08:48:31.955Z,8.50
2018-05-13T08:49:32.399Z,7.50
2018-05-13T08:50:31.727Z,8.10
2018-05-13T08:51:31.748Z,9.60
2018-05-13T08:52:31.548Z,7.80
2018-05-13T08:53:31.487Z,8.20
2018-05-13T08:54:31.385Z,21.00
2018-05-13T08:55:31.300Z,6.80
2018-05-13T08:56:31.250Z,7.40
2018-05-13T08:57:31.140Z,8.50
2018-05-13T08:58:31.149Z,7.40
2018-05-13T08:59:30.972Z,7.90
2018-05-13T09:00:30.892Z,7.70
2018-05-13T09:01:30.843Z,7.70
2018-05-13T09:02:30.732Z,7.30
2018-05-13T09:03:30.650Z,8.70
2018-05-13T09:04:30.563Z,7.20
2018-05-13T09:05:30.575Z,8.60
2018-05-13T09:06:30.439Z,7.60
2018-05-13T09:07:30.319Z,8.60
2018-05-13T09:08:30.247Z,7.80
2018-05-13T09:09:30.155Z,9.60
2018-05-13T09:10:30.074Z,7.60
2018-05-13T09:11:29.994Z,6.60
2018-05-13T09:12:29.938Z,7.00
2018-05-13T09:13:29.829Z,7.40
2018-05-13T09:14:29.840Z,10.50
2018-05-13T09:15:29.668Z,8.30
2018-05-13T09:16:30.364Z,7.30
2018-05-13T09:17:29.532Z,7.30
2018-05-13T09:18:29.520Z,7.20
2018-05-13T09:19:29.340Z,7.80
2018-05-13T09:20:29.329Z,7.60
2018-05-13T09:21:29.184Z,7.40
2018-05-13T09:22:29.130Z,8.00
2018-05-13T09:23:29.012Z,7.70
2018-05-13T09:24:28.934Z,7.30
2018-05-13T09:25:28.853Z,6.70
2018-05-13T09:26:28.772Z,6.10
2018-05-13T09:27:28.723Z,7.60
2018-05-13T09:28:28.605Z,7.10
2018-05-13T09:29:28.530Z,8.20
2018-05-13T09:30:28.444Z,6.30
2018-05-13T09:31:28.361Z,6.90
2018-05-13T09:32:28.314Z,7.10
2018-05-13T09:33:28.201Z,7.10
2018-05-13T09:34:28.820Z,8.10
2018-05-13T09:35:28.038Z,9.40
2018-05-13T09:36:27.959Z,7.10
2018-05-13T09:37:27.904Z,7.20
2018-05-13T09:38:28.418Z,6.70
2018-05-13T09:39:27.776Z,7.90
2018-05-13T09:40:27.631Z,7.10
2018-05-13T09:41:27.554Z,8.00
2018-05-13T09:42:27.503Z,6.80
2018-05-13T09:43:27.387Z,5.40
2018-05-13T09:44:27.307Z,6.20
2018-05-13T09:45:27.227Z,6.70
2018-05-13T09:46:27.147Z,7.50
2018-05-13T09:47:27.096Z,6.50
2018-05-13T09:48:26.986Z,7.80
2018-05-13T09:49:26.903Z,7.10
2018-05-13T09:50:26.823Z,5.60
2018-05-13T09:51:27.420Z,7.90
2018-05-13T09:52:26.689Z,6.80
2018-05-13T09:53:26.581Z,6.00
2018-05-13T09:54:26.503Z,8.10
2018-05-13T09:55:26.414Z,5.70
2018-05-13T09:56:26.336Z,10.10
2018-05-13T09:57:26.286Z,8.90
2018-05-13T09:58:26.174Z,7.10
2018-05-13T09:59:26.091Z,7.80
2018-05-13T10:00:26.886Z,7.40
2018-05-13T10:01:25.930Z,6.10
2018-05-13T10:02:25.883Z,6.50
2018-05-13T10:03:26.384Z,5.60
2018-05-13T10:04:25.692Z,5.90
2018-05-13T10:05:25.607Z,6.90
2018-05-13T10:06:25.527Z,9.40
2018-05-13T10:07:25.656Z,7.00
2018-05-13T10:08:25.364Z,5.30
2018-05-13T10:09:25.388Z,10.20
2018-05-13T10:10:25.205Z,6.60
2018-05-13T10:11:25.121Z,4.40
2018-05-13T10:12:25.074Z,6.10
2018-05-13T10:13:24.960Z,6.30
2018-05-13T10:14:24.973Z,6.80
2018-05-13T10:15:25.333Z,7.20
2018-05-13T10:16:24.718Z,6.20
2018-05-13T10:17:24.639Z,5.80
2018-05-13T10:18:24.592Z,8.30
2018-05-13T10:19:24.507Z,5.70
2018-05-13T10:20:24.399Z,5.10
2018-05-13T10:21:24.403Z,6.40
2018-05-13T10:22:24.236Z,5.50
2018-05-13T10:23:24.182Z,5.70
2018-05-13T10:24:24.071Z,6.60
2018-05-13T10:25:23.991Z,6.00
2018-05-13T10:26:23.909Z,5.00
2018-05-13T10:27:23.834Z,5.20
2018-05-13T10:28:23.870Z,6.90
2018-05-13T10:29:23.670Z,6.40
2018-05-13T10:30:23.591Z,6.00
2018-05-13T10:31:23.513Z,6.30
2018-05-13T10:32:23.428Z,5.80
2018-05-13T10:33:23.379Z,5.50
2018-05-13T10:34:23.270Z,8.00
2018-05-13T10:35:23.184Z,4.90
2018-05-13T10:36:23.191Z,6.00
2018-05-13T10:37:23.026Z,8.30
2018-05-13T10:38:22.977Z,5.30
2018-05-13T10:39:22.862Z,6.90
2018-05-13T10:40:22.783Z,6.30
2018-05-13T10:41:22.704Z,5.40
2018-05-13T10:42:22.707Z,4.70
2018-05-13T10:43:22.575Z,6.60
2018-05-13T10:44:22.461Z,5.10
2018-05-13T10:45:22.383Z,6.80
2018-05-13T10:46:22.301Z,5.80
2018-05-13T10:47:22.217Z,4.90
2018-05-13T10:48:22.168Z,5.10
2018-05-13T10:49:22.059Z,5.30
2018-05-13T10:50:21.977Z,5.60
2018-05-13T10:51:21.898Z,5.10
2018-05-13T10:52:21.815Z,7.80
2018-05-13T10:53:21.765Z,5.50
2018-05-13T10:54:21.657Z,5.70
2018-05-13T10:55:21.579Z,6.50
2018-05-13T10:56:21.495Z,5.90
2018-05-13T10:57:21.409Z,4.50
2018-05-13T10:58:21.367Z,4.70
2018-05-13T10:59:21.251Z,6.90
2018-05-13T11:00:21.169Z,6.00
2018-05-13T11:01:21.093Z,5.60
2018-05-13T11:02:21.009Z,6.50
2018-05-13T11:03:20.959Z,6.40
2018-05-13T11:04:20.847Z,5.40
2018-05-13T11:05:20.771Z,4.70
2018-05-13T11:06:20.688Z,6.00
2018-05-13T11:07:20.605Z,6.50
2018-05-13T11:08:20.555Z,5.60
2018-05-13T11:09:20.444Z,4.40
2018-05-13T11:10:20.445Z,8.80
2018-05-13T11:11:20.595Z,5.10
2018-05-13T11:12:20.202Z,6.60
2018-05-13T11:13:21.860Z,5.40
2018-05-13T11:14:20.043Z,4.80
2018-05-13T11:15:19.960Z,5.80
2018-05-13T11:16:19.879Z,4.80
2018-05-13T11:17:20.416Z,5.80
2018-05-13T11:18:19.753Z,5.70
2018-05-13T11:19:19.638Z,7.40
2018-05-13T11:20:19.556Z,6.00
2018-05-13T11:21:19.484Z,5.90
2018-05-13T11:22:19.398Z,5.30
2018-05-13T11:23:19.317Z,4.90
2018-05-13T11:24:19.356Z,6.20
2018-05-13T11:25:19.157Z,7.50
2018-05-13T11:26:19.073Z,6.10
2018-05-13T11:27:18.993Z,7.00
2018-05-13T11:28:18.916Z,4.70
2018-05-13T11:29:18.870Z,5.40
2018-05-13T11:30:18.753Z,9.20
2018-05-13T11:31:18.772Z,6.60
2018-05-13T11:32:18.597Z,8.30
2018-05-13T11:33:18.513Z,6.40
2018-05-13T11:34:18.461Z,7.10
2018-05-13T11:35:18.866Z,6.80
2018-05-13T11:36:18.284Z,5.70
2018-05-13T11:37:18.190Z,5.60
2018-05-13T11:38:18.198Z,5.30
2018-05-13T11:39:18.061Z,6.20
2018-05-13T11:40:17.950Z,7.00
2018-05-13T11:41:17.869Z,4.80
2018-05-13T11:42:17.791Z,4.80
2018-05-13T11:43:17.710Z,5.70
2018-05-13T11:44:17.659Z,3.90
2018-05-13T11:45:17.651Z,4.60
2018-05-13T11:46:17.471Z,8.50
2018-05-13T11:47:17.390Z,4.70
2018-05-13T11:48:17.308Z,3.70
2018-05-13T11:49:17.260Z,4.70
2018-05-13T11:50:17.152Z,8.70
2018-05-13T11:51:17.074Z,6.00
2018-05-13T11:52:17.086Z,6.10
2018-05-13T11:53:16.915Z,5.50
2018-05-13T11:54:17.375Z,8.10
2018-05-13T11:55:16.753Z,6.50
2018-05-13T11:56:16.681Z,5.50
2018-05-13T11:57:16.593Z,5.70
2018-05-13T11:58:16.516Z,5.40
2018-05-13T11:59:17.423Z,5.60
2018-05-13T12:00:16.353Z,3.90
2018-05-13T12:01:16.275Z,5.10
2018-05-13T12:02:16.256Z,5.30
2018-05-13T12:03:16.119Z,6.00
2018-05-13T12:04:16.066Z,6.30
2018-05-13T12:05:15.956Z,4.40
2018-05-13T12:06:16.377Z,5.80
2018-05-13T12:07:15.796Z,5.20
2018-05-13T12:08:15.720Z,7.40
2018-05-13T12:09:15.674Z,6.20
2018-05-13T12:10:15.560Z,6.10
2018-05-13T12:11:15.476Z,5.60
2018-05-13T12:12:15.520Z,3.80
2018-05-13T12:13:15.318Z,6.20
2018-05-13T12:14:15.269Z,4.50
2018-05-13T12:15:15.197Z,5.80
2018-05-13T12:16:15.079Z,4.60
2018-05-13T12:17:14.999Z,4.90
2018-05-13T12:18:14.919Z,4.10
2018-05-13T12:19:14.872Z,4.50
2018-05-13T12:20:14.761Z,6.90
2018-05-13T12:21:14.679Z,6.90
2018-05-13T12:22:14.602Z,4.80
2018-05-13T12:23:14.522Z,5.90
2018-05-13T12:24:14.473Z,5.30
2018-05-13T12:25:14.362Z,4.90
2018-05-13T12:26:14.285Z,5.80
2018-05-13T12:27:14.201Z,5.70
2018-05-13T12:28:14.121Z,5.10
2018-05-13T12:29:14.072Z,4.50
2018-05-13T12:30:13.964Z,5.10
2018-05-13T12:31:14.447Z,5.90
2018-05-13T12:32:13.807Z,6.00
2018-05-13T12:33:13.732Z,5.70
2018-05-13T12:34:13.648Z,5.30
2018-05-13T12:35:14.437Z,4.80
2018-05-13T12:36:13.488Z,4.80
2018-05-13T12:37:13.407Z,5.70
2018-05-13T12:38:13.329Z,6.00
2018-05-13T12:39:13.250Z,6.00
2018-05-13T12:40:13.288Z,6.00
2018-05-13T12:41:13.086Z,4.80
2018-05-13T12:42:13.010Z,6.80
2018-05-13T12:43:12.929Z,5.30
2018-05-13T12:44:12.851Z,5.90
2018-05-13T12:45:12.807Z,7.10
2018-05-13T12:46:12.694Z,6.00
2018-05-13T12:47:12.610Z,4.30
2018-05-13T12:48:12.531Z,6.40
2018-05-13T12:49:12.453Z,5.50
2018-05-13T12:50:12.418Z,5.50
2018-05-13T12:51:12.294Z,5.40
2018-05-13T12:52:12.212Z,4.20
2018-05-13T12:53:12.133Z,5.90
2018-05-13T12:54:12.056Z,5.70
2018-05-13T12:55:12.006Z,5.30
2018-05-13T12:56:11.894Z,6.60
2018-05-13T12:57:11.817Z,4.70
2018-05-13T12:58:11.736Z,5.60
2018-05-13T12:59:11.656Z,4.00
2018-05-13T13:00:11.610Z,4.50
2018-05-13T13:01:11.496Z,6.20
2018-05-13T13:02:11.417Z,5.30
2018-05-13T13:03:11.338Z,6.00
2018-05-13T13:04:13.900Z,4.00